createdAt,value
2023-04-02T00:01:43.056Z,99949.92
2023-04-02T00:05:16.394Z,99955.61
2023-04-02T00:08:42.066Z,99955.73
2023-04-02T00:12:16.389Z,99956.06
2023-04-02T00:15:43.637Z,99959.91
2023-04-02T00:19:14.710Z,99958.12
2023-04-02T00:22:32.403Z,99961.42
2023-04-02T00:25:57.986Z,99966.81
2023-04-02T00:29:24.063Z,99975.88
2023-04-02T00:32:50.069Z,99974.91
2023-04-02T00:36:15.930Z,99977.55
2023-04-02T00:39:42.506Z,99987.25
2023-04-02T00:43:09.142Z,99991.46
2023-04-02T00:46:46.852Z,99987.30
2023-04-02T00:50:21.083Z,99989.69
2023-04-02T00:53:48.482Z,99993.55
2023-04-02T00:57:18.026Z,99996.70
2023-04-02T01:00:49.884Z,99997.35
2023-04-02T01:04:34.657Z,100002.67
2023-04-02T01:08:06.221Z,100003.48
2023-04-02T01:11:39.389Z,100003.23
2023-04-02T01:15:09.809Z,100009.73
2023-04-02T01:18:47.078Z,100011.77
2023-04-02T01:22:18.333Z,100011.83
2023-04-02T01:25:45.004Z,100017.55
2023-04-02T01:29:12.917Z,100022.23
2023-04-02T01:32:21.182Z,100025.63
2023-04-02T01:35:50.140Z,100029.91
2023-04-02T01:39:13.482Z,100030.67
2023-04-02T01:42:42.772Z,100032.38
2023-04-02T01:46:25.832Z,100035.45
2023-04-02T01:49:54.475Z,100046.17
2023-04-02T01:53:21.487Z,100044.85
2023-04-02T01:56:47.242Z,100051.98
2023-04-02T02:00:16.093Z,100053.98
2023-04-02T02:03:43.755Z,100061.05
2023-04-02T02:07:14.467Z,100067.02
2023-04-02T02:10:40.903Z,100068.58
2023-04-02T02:14:12.801Z,100070.52
2023-04-02T02:17:37.245Z,100069.65
2023-04-02T02:21:06.216Z,100075.17
2023-04-02T02:24:28.215Z,100077.54
2023-04-02T02:27:54.107Z,100087.26
2023-04-02T02:31:19.217Z,100091.07
2023-04-02T02:34:41.651Z,100095.38
2023-04-02T02:38:24.066Z,100100.88
2023-04-02T02:41:52.718Z,100096.40
2023-04-02T02:45:03.364Z,100104.29
2023-04-02T02:48:35.760Z,100108.39
2023-04-02T02:52:02.180Z,100120.14
2023-04-02T02:55:29.964Z,100121.36
2023-04-02T02:58:54.177Z,100124.21
2023-04-02T03:02:20.129Z,100128.99
2023-04-02T03:05:51.189Z,100135.19
2023-04-02T03:09:20.415Z,100140.80
2023-04-02T03:12:50.220Z,100150.36
2023-04-02T03:16:01.983Z,100155.23
2023-04-02T03:19:30.888Z,100157.05
2023-04-02T03:22:57.727Z,100161.19
2023-04-02T03:26:24.002Z,100161.80
2023-04-02T03:29:54.885Z,100161.70
2023-04-02T03:33:22.621Z,100164.66
2023-04-02T03:36:53.375Z,100174.94
2023-04-02T03:40:21.878Z,100181.80
2023-04-02T03:43:48.811Z,100186.10
2023-04-02T03:47:18.018Z,100190.48
2023-04-02T03:50:27.486Z,100194.39
2023-04-02T03:53:36.034Z,100196.60
2023-04-02T03:57:02.055Z,100205.12
2023-04-02T04:00:16.479Z,100211.15
2023-04-02T04:03:25.561Z,100218.03
2023-04-02T04:06:45.796Z,100223.38
2023-04-02T04:10:18.339Z,100232.89
2023-04-02T04:13:46.982Z,100233.91
2023-04-02T04:17:14.153Z,100238.70
2023-04-02T04:20:46.116Z,100244.42
2023-04-02T04:24:08.496Z,100249.23
2023-04-02T04:27:33.700Z,100253.89
2023-04-02T04:30:54.367Z,100256.83
2023-04-02T04:34:23.178Z,100266.63
2023-04-02T04:37:53.699Z,100271.15
2023-04-02T04:41:22.640Z,100275.80
2023-04-02T04:44:52.911Z,100284.02
2023-04-02T04:48:20.323Z,100288.08
2023-04-02T04:51:49.607Z,100290.35
2023-04-02T04:55:25.710Z,100299.91
2023-04-02T04:58:54.191Z,100298.98
2023-04-02T05:02:23.994Z,100304.95
2023-04-02T05:05:41.503Z,100305.02
2023-04-02T05:09:14.805Z,100312.02
2023-04-02T05:12:35.868Z,100320.17
2023-04-02T05:16:03.354Z,100324.18
2023-04-02T05:19:35.673Z,100333.77
2023-04-02T05:23:04.181Z,100338.60
2023-04-02T05:26:32.923Z,100345.29
2023-04-02T05:30:01.752Z,100353.27
2023-04-02T05:33:28.505Z,100354.83
2023-04-02T05:36:47.086Z,100365.94
2023-04-02T05:40:14.995Z,100361.90
2023-04-02T05:43:35.630Z,100362.00
2023-04-02T05:47:03.643Z,100367.74
2023-04-02T05:50:31.672Z,100371.62
2023-04-02T05:53:59.742Z,100387.59
2023-04-02T06:00:59.835Z,100395.34
2023-04-02T06:04:28.883Z,100400.40
2023-04-02T06:07:58.269Z,100403.88
2023-04-02T06:11:27.124Z,100413.51
2023-04-02T06:14:53.431Z,100411.34
2023-04-02T06:18:16.211Z,100420.14
2023-04-02T06:21:25.216Z,100422.17
2023-04-02T06:24:54.972Z,100428.04
2023-04-02T06:28:13.234Z,100433.20
2023-04-02T06:31:40.198Z,100438.05
2023-04-02T06:35:06.151Z,100439.71
2023-04-02T06:38:26.690Z,100441.89
2023-04-02T06:41:57.238Z,100452.42
2023-04-02T06:45:25.246Z,100449.29
2023-04-02T06:49:06.852Z,100458.80
2023-04-02T06:52:35.058Z,100459.34
2023-04-02T06:56:04.314Z,100467.98
2023-04-02T06:59:29.982Z,100478.09
2023-04-02T07:02:56.479Z,100479.13
2023-04-02T07:06:22.658Z,100485.11
2023-04-02T07:09:48.272Z,100493.20
2023-04-02T07:13:16.644Z,100501.75
2023-04-02T07:16:32.934Z,100501.52
2023-04-02T07:19:58.900Z,100505.73
2023-04-02T07:23:25.040Z,100505.64
2023-04-02T07:26:50.735Z,100517.14
2023-04-02T07:29:59.384Z,100516.83
2023-04-02T07:33:16.536Z,100526.52
2023-04-02T07:36:42.273Z,100530.20
2023-04-02T07:40:16.543Z,100533.36
2023-04-02T07:43:43.129Z,100538.63
2023-04-02T07:47:10.591Z,100548.46
2023-04-02T07:50:36.761Z,100553.16
2023-04-02T07:54:03.069Z,100554.76
2023-04-02T07:57:28.842Z,100557.52
2023-04-02T08:00:37.579Z,100568.27
2023-04-02T08:04:04.502Z,100564.23
2023-04-02T08:07:30.326Z,100570.48
2023-04-02T08:10:56.549Z,100584.92
2023-04-02T08:14:22.154Z,100581.27
2023-04-02T08:17:41.528Z,100581.56
2023-04-02T08:21:08.941Z,100581.97
2023-04-02T08:24:24.617Z,100583.02
2023-04-02T08:27:39.526Z,100591.02
2023-04-02T08:31:05.291Z,100600.66
2023-04-02T08:34:30.919Z,100602.69
2023-04-02T08:37:56.521Z,100607.41
2023-04-02T08:41:27.558Z,100613.25
2023-04-02T08:44:56.382Z,100618.38
2023-04-02T08:48:23.449Z,100625.30
2023-04-02T08:51:49.203Z,100615.41
2023-04-02T08:55:23.577Z,100612.81
2023-04-02T08:58:51.042Z,100621.70
2023-04-02T09:02:28.205Z,100625.54
2023-04-02T09:05:54.519Z,100634.02
2023-04-02T09:09:00.351Z,100637.33
2023-04-02T09:12:27.787Z,100638.13
2023-04-02T09:15:41.841Z,100636.41
2023-04-02T09:19:01.043Z,100645.61
2023-04-02T09:22:27.329Z,100651.19
2023-04-02T09:25:39.548Z,100656.92
2023-04-02T09:29:17.676Z,100660.97
2023-04-02T09:32:49.043Z,100664.48
2023-04-02T09:36:27.316Z,100667.05
2023-04-02T09:39:45.533Z,100667.06
2023-04-02T09:43:14.045Z,100673.74
2023-04-02T09:46:48.415Z,100672.50
2023-04-02T09:50:24.296Z,100682.53
2023-04-02T09:53:34.425Z,100682.48
2023-04-02T09:57:04.430Z,100695.45
2023-04-02T10:00:32.480Z,100698.03
2023-04-02T10:03:59.664Z,100700.15
2023-04-02T10:07:31.996Z,100704.23
2023-04-02T10:10:58.706Z,100709.27
2023-04-02T10:14:20.134Z,100705.55
2023-04-02T10:17:48.306Z,100716.52
2023-04-02T10:21:07.374Z,100725.35
2023-04-02T10:24:23.230Z,100724.91
2023-04-02T10:27:45.982Z,100728.27
2023-04-02T10:31:17.382Z,100733.10
2023-04-02T10:34:49.765Z,100737.10
2023-04-02T10:38:25.408Z,100742.92
2023-04-02T10:41:54.485Z,100740.05
2023-04-02T10:45:03.520Z,100741.10
2023-04-02T10:48:33.997Z,100756.71
2023-04-02T10:52:03.455Z,100761.89
2023-04-02T10:55:31.529Z,100773.05
2023-04-02T10:59:00.492Z,100780.13
2023-04-02T11:02:32.132Z,100782.66
2023-04-02T11:05:58.605Z,100797.30
2023-04-02T11:09:26.682Z,100790.23
2023-04-02T11:12:44.193Z,100801.92
2023-04-02T11:15:59.077Z,100803.30
2023-04-02T11:19:26.405Z,100799.59
2023-04-02T11:26:54.440Z,100816.77
2023-04-02T11:30:20.252Z,100821.80
2023-04-02T11:33:46.029Z,100830.83
2023-04-02T11:37:11.223Z,100839.06
2023-04-02T11:40:51.396Z,100832.32
2023-04-02T11:44:22.938Z,100846.81
2023-04-02T11:48:11.302Z,100842.84
2023-04-02T11:51:56.382Z,100847.98
2023-04-02T11:55:27.381Z,100858.88
2023-04-02T11:58:55.723Z,100862.94
2023-04-02T12:02:20.958Z,100867.52
2023-04-02T12:05:53.909Z,100880.48
2023-04-02T12:09:16.486Z,100887.89
2023-04-02T12:12:39.397Z,100877.16
2023-04-02T12:16:02.455Z,100894.45
2023-04-02T12:19:18.074Z,100894.88
2023-04-02T12:22:47.380Z,100889.95
2023-04-02T12:26:24.185Z,100890.29
2023-04-02T12:29:47.049Z,100899.41
2023-04-02T12:32:56.200Z,100903.54
2023-04-02T12:36:20.021Z,100892.65
2023-04-02T12:39:51.444Z,100906.90
2023-04-02T12:43:22.746Z,100896.13
2023-04-02T12:46:39.596Z,100896.14
2023-04-02T12:50:02.790Z,100897.98
2023-04-02T12:53:20.838Z,100902.42
2023-04-02T12:56:44.057Z,100917.86
2023-04-02T12:59:47.585Z,100907.33
2023-04-02T13:03:16.337Z,100912.92
2023-04-02T13:06:30.308Z,100915.15
2023-04-02T13:09:54.399Z,100912.83
2023-04-02T13:13:21.295Z,100931.66
2023-04-02T13:16:44.311Z,100925.45
2023-04-02T13:20:23.927Z,100933.58
2023-04-02T13:23:37.786Z,100928.38
2023-04-02T13:27:01.714Z,100932.77
2023-04-02T13:30:21.427Z,100941.54
2023-04-02T13:33:38.158Z,100941.09
2023-04-02T13:36:53.768Z,100943.64
2023-04-02T13:40:18.633Z,100955.25
2023-04-02T13:43:41.505Z,100965.13
2023-04-02T13:47:04.714Z,100969.39
2023-04-02T13:50:28.331Z,100961.30
2023-04-02T13:53:52.765Z,100967.82
2023-04-02T13:57:16.184Z,100971.91
2023-04-02T14:00:39.189Z,100974.77
2023-04-02T14:03:57.260Z,100983.77
2023-04-02T14:07:37.702Z,100973.42
2023-04-02T14:11:08.451Z,100976.51
2023-04-02T14:14:48.774Z,100989.71
2023-04-02T14:18:23.666Z,100989.31
2023-04-02T14:21:44.061Z,100994.17
2023-04-02T14:25:08.001Z,100989.77
2023-04-02T14:28:19.955Z,100987.39
2023-04-02T14:31:44.054Z,100995.77
2023-04-02T14:35:12.881Z,101001.08
2023-04-02T14:38:39.914Z,101002.09
2023-04-02T14:42:06.104Z,101011.33
2023-04-02T14:45:37.005Z,101012.76
2023-04-02T14:48:45.443Z,101023.66
2023-04-02T14:52:11.717Z,101029.10
2023-04-02T14:55:37.303Z,101028.84
2023-04-02T14:59:07.709Z,101039.33
2023-04-02T15:02:36.102Z,101058.97
2023-04-02T15:05:53.999Z,101053.37
2023-04-02T15:09:18.653Z,101052.80
2023-04-02T15:12:43.592Z,101052.88
2023-04-02T15:16:11.469Z,101050.88
2023-04-02T15:19:34.686Z,101070.23
2023-04-02T15:23:01.564Z,101083.81
2023-04-02T15:26:21.543Z,101076.92
2023-04-02T15:29:48.925Z,101093.62
2023-04-02T15:33:29.633Z,101095.92
2023-04-02T15:36:58.373Z,101100.12
2023-04-02T15:40:26.632Z,101103.13
2023-04-02T15:43:57.207Z,101105.89
2023-04-02T15:47:23.734Z,101118.95
2023-04-02T15:50:52.642Z,101110.44
2023-04-02T15:54:12.588Z,101121.98
2023-04-02T15:57:45.447Z,101122.75
2023-04-02T16:01:11.174Z,101128.00
2023-04-02T16:04:45.981Z,101135.03
2023-04-02T16:08:10.178Z,101140.30
2023-04-02T16:11:13.846Z,101147.84
2023-04-02T16:14:38.728Z,101163.54
2023-04-02T16:18:03.055Z,101169.16
2023-04-02T16:21:28.873Z,101173.88
2023-04-02T16:24:57.584Z,101173.85
2023-04-02T16:28:24.154Z,101179.05
2023-04-02T16:31:50.009Z,101186.92
2023-04-02T16:38:36.808Z,101218.93
2023-04-02T16:42:05.454Z,101227.10
2023-04-02T16:45:30.719Z,101237.44
2023-04-02T16:48:57.192Z,101244.17
2023-04-02T16:52:25.682Z,101248.39
2023-04-02T16:55:54.067Z,101254.46
2023-04-02T16:59:22.797Z,101252.34
2023-04-02T17:02:51.366Z,101260.79
2023-04-02T17:06:19.738Z,101258.71
2023-04-02T17:09:45.283Z,101261.94
2023-04-02T17:13:17.272Z,101262.33
2023-04-02T17:16:36.457Z,101271.65
2023-04-02T17:20:00.488Z,101274.78
2023-04-02T17:23:24.443Z,101281.36
2023-04-02T17:26:50.274Z,101279.04
2023-04-02T17:30:15.694Z,101280.77
2023-04-02T17:33:26.261Z,101277.02
2023-04-02T17:36:44.269Z,101285.59
2023-04-02T17:40:13.365Z,101278.69
2023-04-02T17:43:42.412Z,101274.67
2023-04-02T17:47:11.126Z,101282.79
2023-04-02T17:50:38.318Z,101284.95
2023-04-02T17:54:07.163Z,101287.73
2023-04-02T17:57:39.136Z,101296.73
2023-04-02T18:01:07.329Z,101303.88
2023-04-02T18:04:18.316Z,101309.14
2023-04-02T18:07:35.680Z,101315.71
2023-04-02T18:11:02.974Z,101318.66
2023-04-02T18:14:35.666Z,101333.13
2023-04-02T18:18:02.068Z,101341.48
2023-04-02T18:21:30.509Z,101346.74
2023-04-02T18:25:03.400Z,101358.30
2023-04-02T18:28:33.316Z,101360.69
2023-04-02T18:32:01.008Z,101372.53
2023-04-02T18:35:26.584Z,101382.02
2023-04-02T18:38:53.877Z,101388.72
2023-04-02T18:42:18.189Z,101396.11
2023-04-02T18:45:48.680Z,101395.67
2023-04-02T18:49:19.217Z,101405.80
2023-04-02T18:52:42.194Z,101415.92
2023-04-02T18:56:07.148Z,101416.73
2023-04-02T18:59:36.513Z,101422.10
2023-04-02T19:03:02.702Z,101427.58
2023-04-02T19:06:22.568Z,101430.36
2023-04-02T19:09:47.747Z,101435.61
2023-04-02T19:13:13.836Z,101436.86
2023-04-02T19:16:56.960Z,101431.02
2023-04-02T19:20:26.302Z,101444.68
2023-04-02T19:23:58.049Z,101443.73
2023-04-02T19:27:25.258Z,101449.30
2023-04-02T19:30:53.041Z,101447.56
2023-04-02T19:34:20.275Z,101448.20
2023-04-02T19:37:46.036Z,101456.11
2023-04-02T19:41:12.164Z,101456.96
2023-04-02T19:44:35.804Z,101463.04
2023-04-02T19:48:00.490Z,101464.91
2023-04-02T19:51:16.209Z,101469.60
2023-04-02T19:54:39.321Z,101468.66
2023-04-02T19:57:44.561Z,101468.89
2023-04-02T20:01:07.635Z,101475.09
2023-04-02T20:04:31.339Z,101472.83
2023-04-02T20:07:46.848Z,101470.51
2023-04-02T20:11:10.000Z,101476.05
2023-04-02T20:14:32.991Z,101481.17
2023-04-02T20:17:48.621Z,101481.77
2023-04-02T20:21:11.593Z,101488.70
2023-04-02T20:24:34.527Z,101492.20
2023-04-02T20:27:57.468Z,101497.80
2023-04-02T20:31:20.854Z,101501.61
2023-04-02T20:34:44.417Z,101498.02
2023-04-02T20:38:08.546Z,101510.15
2023-04-02T20:41:21.633Z,101510.40
2023-04-02T20:44:38.332Z,101517.20
2023-04-02T20:48:01.498Z,101524.42
2023-04-02T20:51:24.398Z,101534.51
2023-04-02T20:54:47.167Z,101536.41
2023-04-02T20:58:10.610Z,101540.12
2023-04-02T21:01:33.567Z,101546.04
2023-04-02T21:04:56.659Z,101547.95
2023-04-02T21:08:20.512Z,101548.24
2023-04-02T21:11:44.156Z,101550.14
2023-04-02T21:15:10.904Z,101551.45
2023-04-02T21:18:33.862Z,101557.27
2023-04-02T21:21:56.825Z,101564.63
2023-04-02T21:25:19.781Z,101559.71
2023-04-02T21:28:43.112Z,101566.14
2023-04-02T21:32:18.025Z,101566.85
2023-04-02T21:35:46.194Z,101569.90
2023-04-02T21:39:10.431Z,101571.40
2023-04-02T21:42:33.405Z,101574.80
2023-04-02T21:45:58.670Z,101575.69
2023-04-02T21:49:22.201Z,101577.67
2023-04-02T21:52:46.198Z,101581.11
2023-04-02T21:56:11.257Z,101585.14
2023-04-02T21:59:34.334Z,101590.73
2023-04-02T22:02:57.374Z,101592.72
2023-04-02T22:06:21.468Z,101595.14
2023-04-02T22:09:44.539Z,101602.79
2023-04-02T22:13:08.163Z,101602.67
2023-04-02T22:16:32.274Z,101604.91
2023-04-02T22:19:55.572Z,101608.58
2023-04-02T22:23:19.490Z,101609.29
2023-04-02T22:26:43.649Z,101609.48
2023-04-02T22:30:08.703Z,101611.54
2023-04-02T22:33:31.981Z,101616.10
2023-04-02T22:36:55.787Z,101620.10
2023-04-02T22:40:18.580Z,101623.19
2023-04-02T22:43:43.229Z,101627.16
2023-04-02T22:47:06.365Z,101629.23
2023-04-02T22:50:29.312Z,101628.71
2023-04-02T22:53:53.573Z,101630.80
2023-04-02T22:57:16.501Z,101636.25
2023-04-02T23:00:39.457Z,101637.42
2023-04-02T23:04:06.232Z,101638.65
2023-04-02T23:07:29.367Z,101642.52
2023-04-02T23:10:52.539Z,101644.21
2023-04-02T23:14:15.584Z,101647.40
2023-04-02T23:17:38.579Z,101648.60
2023-04-02T23:21:01.872Z,101647.60
2023-04-02T23:24:24.838Z,101648.74
2023-04-02T23:27:47.946Z,101651.27
2023-04-02T23:31:13.186Z,101651.29
2023-04-02T23:34:36.390Z,101652.32
2023-04-02T23:37:59.411Z,101651.70
2023-04-02T23:41:23.521Z,101648.50
2023-04-02T23:44:46.555Z,101647.51
2023-04-02T23:48:09.533Z,101649.35
2023-04-02T23:51:32.503Z,101649.48
2023-04-02T23:54:55.530Z,101651.80
2023-04-02T23:58:18.605Z,101652.57
